createdAt,value
2019-01-20T05:31:58.687Z,13.30
2019-01-20T05:34:27.695Z,15.53
2019-01-20T05:36:56.694Z,17.33
2019-01-20T05:39:25.734Z,16.50
2019-01-20T05:41:56.697Z,15.40
2019-01-20T05:44:25.732Z,15.73
2019-01-20T05:46:54.688Z,14.53
2019-01-20T05:49:23.743Z,13.77
2019-01-20T05:51:52.814Z,15.30
2019-01-20T05:54:21.932Z,14.70
2019-01-20T05:56:50.843Z,15.80
2019-01-20T05:59:19.791Z,13.07
2019-01-20T06:01:48.913Z,13.10
2019-01-20T06:04:17.919Z,12.83
2019-01-20T06:06:47.003Z,14.67
2019-01-20T06:09:16.035Z,13.53
2019-01-20T06:11:45.035Z,14.87
2019-01-20T06:14:13.956Z,13.00
2019-01-20T06:16:42.940Z,14.93
2019-01-20T06:19:12.014Z,13.57
2019-01-20T06:21:41.009Z,13.60
2019-01-20T06:24:10.055Z,11.80
2019-01-20T06:26:38.972Z,13.70
2019-01-20T06:29:08.042Z,13.37
2019-01-20T06:31:37.009Z,13.53
2019-01-20T06:34:06.094Z,12.70
2019-01-20T06:36:35.352Z,12.27
2019-01-20T06:39:06.747Z,13.03
2019-01-20T06:41:35.871Z,14.00
2019-01-20T06:44:04.970Z,13.97
2019-01-20T06:46:34.212Z,13.13
2019-01-20T06:49:03.206Z,13.03
2019-01-20T06:51:32.259Z,15.10
2019-01-20T06:54:01.312Z,14.47
2019-01-20T06:56:30.233Z,31.70
2019-01-20T06:58:59.226Z,22.93
2019-01-20T07:01:28.352Z,17.13
2019-01-20T07:03:57.421Z,14.13
2019-01-20T07:06:26.499Z,13.43
2019-01-20T07:08:55.471Z,14.37
2019-01-20T07:11:24.472Z,14.63
2019-01-20T07:13:53.473Z,15.00
2019-01-20T07:16:22.584Z,15.47
2019-01-20T07:18:51.588Z,16.50
2019-01-20T07:21:20.731Z,15.30
2019-01-20T07:23:49.678Z,15.60
2019-01-20T07:26:18.756Z,15.50
2019-01-20T07:28:47.670Z,15.90
2019-01-20T07:31:16.707Z,17.57
2019-01-20T07:33:45.798Z,17.07
2019-01-20T07:36:14.982Z,13.77
2019-01-20T07:38:44.085Z,14.27
2019-01-20T07:41:13.149Z,15.63
2019-01-20T07:43:42.246Z,15.07
2019-01-20T07:46:11.403Z,16.17
2019-01-20T07:48:40.331Z,14.57
2019-01-20T07:51:09.411Z,13.43
2019-01-20T07:53:38.461Z,15.57
2019-01-20T07:56:07.526Z,14.77
2019-01-20T07:58:36.778Z,14.97
2019-01-20T08:01:05.895Z,14.47
2019-01-20T08:03:34.931Z,14.50
2019-01-20T08:06:04.001Z,14.07
2019-01-20T08:08:33.041Z,12.93
2019-01-20T08:11:02.050Z,12.40
2019-01-20T08:13:31.064Z,13.27
2019-01-20T08:16:00.238Z,12.23
2019-01-20T08:18:29.355Z,13.10
2019-01-20T08:20:58.361Z,12.90
2019-01-20T08:23:27.381Z,10.90
2019-01-20T08:25:56.470Z,12.27
2019-01-20T08:28:25.515Z,11.77
2019-01-20T08:30:54.605Z,12.03
2019-01-20T08:33:23.753Z,11.63
2019-01-20T08:35:52.894Z,13.67
2019-01-20T08:38:22.034Z,14.23
2019-01-20T08:40:51.174Z,12.60
2019-01-20T08:43:20.210Z,14.03
2019-01-20T08:46:00.622Z,11.07
2019-01-20T08:48:29.626Z,11.30
2019-01-20T08:50:58.809Z,10.97
2019-01-20T08:53:28.450Z,11.40
2019-01-20T08:55:57.585Z,12.07
2019-01-20T08:58:26.662Z,11.93
2019-01-20T09:00:55.687Z,11.57
2019-01-20T09:03:24.695Z,12.50
2019-01-20T09:05:53.698Z,11.37
2019-01-20T09:08:22.744Z,10.37
2019-01-20T09:10:51.912Z,10.30
2019-01-20T09:13:21.107Z,11.00
2019-01-20T09:15:50.123Z,12.03
2019-01-20T09:18:19.177Z,11.67
2019-01-20T09:20:48.235Z,9.70
2019-01-20T09:23:17.354Z,10.97
2019-01-20T09:25:46.585Z,10.53
2019-01-20T09:28:15.493Z,9.43
2019-01-20T09:30:44.593Z,10.50
2019-01-20T09:33:13.661Z,10.07
2019-01-20T09:35:42.726Z,10.33
2019-01-20T09:38:11.841Z,11.67
2019-01-20T09:40:41.067Z,10.40
2019-01-20T09:43:10.063Z,10.13
2019-01-20T09:45:39.479Z,10.97
2019-01-20T09:48:08.634Z,10.07
2019-01-20T09:50:37.690Z,9.87
2019-01-20T09:53:06.803Z,9.60
2019-01-20T09:55:35.985Z,10.30
2019-01-20T09:58:04.967Z,9.60
2019-01-20T10:00:34.180Z,9.50
2019-01-20T10:03:03.290Z,8.90
2019-01-20T10:05:32.362Z,9.53
2019-01-20T10:08:01.455Z,10.03
2019-01-20T10:10:32.594Z,9.80
2019-01-20T10:13:01.594Z,9.40
2019-01-20T10:15:30.651Z,10.00
2019-01-20T10:17:59.719Z,9.50
2019-01-20T10:20:30.443Z,9.80
2019-01-20T10:22:59.633Z,10.10
2019-01-20T10:25:28.663Z,9.83
2019-01-20T10:27:57.652Z,9.20
2019-01-20T10:30:29.087Z,7.97
2019-01-20T10:32:58.077Z,9.00
2019-01-20T10:35:31.720Z,7.80
2019-01-20T10:38:03.617Z,9.57
2019-01-20T10:40:32.695Z,9.37
2019-01-20T10:43:01.749Z,10.17
2019-01-20T10:45:30.826Z,10.67
2019-01-20T10:47:59.968Z,9.70
2019-01-20T10:50:29.069Z,11.30
2019-01-20T10:53:00.271Z,11.53
2019-01-20T10:55:29.278Z,10.33
2019-01-20T10:57:58.390Z,12.00
2019-01-20T11:00:29.878Z,10.90
2019-01-20T11:02:58.946Z,12.30
2019-01-20T11:05:30.817Z,11.10
2019-01-20T11:07:58.750Z,11.00
2019-01-20T11:10:27.775Z,9.67
2019-01-20T11:12:56.696Z,10.40
2019-01-20T11:15:25.867Z,10.77
2019-01-20T11:17:55.002Z,10.30
2019-01-20T11:20:24.265Z,10.07
2019-01-20T11:22:54.628Z,10.73
2019-01-20T11:25:26.779Z,10.47
2019-01-20T11:27:55.954Z,11.07
2019-01-20T11:30:25.067Z,10.93
2019-01-20T11:32:54.139Z,11.60
2019-01-20T11:35:23.211Z,11.63
2019-01-20T11:37:52.331Z,12.10
2019-01-20T11:40:21.473Z,12.10
2019-01-20T11:42:50.490Z,12.63
2019-01-20T11:45:24.334Z,14.10
2019-01-20T11:47:53.263Z,13.17
2019-01-20T11:50:22.384Z,13.20
2019-01-20T11:52:51.346Z,13.63
2019-01-20T11:55:21.644Z,13.07
2019-01-20T11:57:50.699Z,12.97
2019-01-20T12:00:22.092Z,13.10
2019-01-20T12:02:51.307Z,15.20
2019-01-20T12:05:20.558Z,14.80
2019-01-20T12:07:49.646Z,14.43
2019-01-20T12:10:18.748Z,13.73
2019-01-20T12:12:52.442Z,15.50
2019-01-20T12:15:21.682Z,16.47
2019-01-20T12:17:50.817Z,14.13
2019-01-20T12:20:19.827Z,15.17
2019-01-20T12:22:48.932Z,17.13
2019-01-20T12:25:18.006Z,14.17
2019-01-20T12:27:47.094Z,14.10
2019-01-20T12:30:18.902Z,15.40
2019-01-20T12:32:48.186Z,14.03
2019-01-20T12:35:17.453Z,14.70
2019-01-20T12:37:46.586Z,13.83
2019-01-20T12:40:19.048Z,14.90
2019-01-20T12:42:48.310Z,12.80
2019-01-20T12:45:17.324Z,12.93
2019-01-20T12:47:46.415Z,12.03
2019-01-20T12:50:15.954Z,12.57
2019-01-20T12:52:45.128Z,14.63
2019-01-20T12:55:14.972Z,14.17
2019-01-20T12:57:44.038Z,13.60
2019-01-20T13:00:15.383Z,15.33
2019-01-20T13:02:44.585Z,14.40
2019-01-20T13:05:14.072Z,12.20
2019-01-20T13:07:43.190Z,12.43
2019-01-20T13:10:13.850Z,12.37
2019-01-20T13:12:42.958Z,12.33
2019-01-20T13:15:16.770Z,13.07
2019-01-20T13:17:45.834Z,12.73
2019-01-20T13:20:17.584Z,12.40
2019-01-20T13:22:47.081Z,13.87
2019-01-20T13:25:18.633Z,12.40
2019-01-20T13:27:47.794Z,13.07
2019-01-20T13:30:19.347Z,13.27
2019-01-20T13:32:48.619Z,13.27
2019-01-20T13:35:18.723Z,12.87
2019-01-20T13:37:55.243Z,12.73
2019-01-20T13:40:28.259Z,13.73
2019-01-20T13:42:57.256Z,12.93
2019-01-20T13:45:26.437Z,14.53
2019-01-20T13:47:55.507Z,13.67
2019-01-20T13:50:24.608Z,14.00
2019-01-20T13:52:53.729Z,13.53
2019-01-20T13:55:22.970Z,12.30
2019-01-20T13:57:51.948Z,13.40
2019-01-20T14:00:21.812Z,14.60
2019-01-20T14:02:51.418Z,13.33
2019-01-20T14:05:20.567Z,13.23
2019-01-20T14:07:49.763Z,14.30
2019-01-20T14:10:19.587Z,13.47
2019-01-20T14:12:48.782Z,15.10
2019-01-20T14:15:17.922Z,13.53
2019-01-20T14:17:47.107Z,13.80
2019-01-20T14:20:20.365Z,13.40
2019-01-20T14:22:49.482Z,13.23
2019-01-20T14:25:20.694Z,15.67
2019-01-20T14:27:49.684Z,13.50
2019-01-20T14:30:23.826Z,13.77
2019-01-20T14:32:52.860Z,12.50
2019-01-20T14:35:21.942Z,13.40
2019-01-20T14:37:51.083Z,13.47
2019-01-20T14:40:20.152Z,13.33
2019-01-20T14:42:49.454Z,14.33
2019-01-20T14:45:18.782Z,14.53
2019-01-20T14:47:47.846Z,14.30
2019-01-20T14:50:20.118Z,14.17
2019-01-20T14:52:49.452Z,15.90
2019-01-20T14:55:18.538Z,14.00
2019-01-20T14:57:47.676Z,13.73
2019-01-20T15:00:36.470Z,14.60
2019-01-20T15:03:06.378Z,14.60
2019-01-20T15:05:35.458Z,15.60
2019-01-20T15:08:05.701Z,15.67
2019-01-20T15:10:34.867Z,14.03
2019-01-20T15:13:04.188Z,14.03
2019-01-20T15:15:35.735Z,15.63
2019-01-20T15:18:06.046Z,14.00
2019-01-20T15:20:35.227Z,14.23
2019-01-20T15:23:04.878Z,15.57
2019-01-20T15:25:34.126Z,14.97
2019-01-20T15:28:03.423Z,15.40
2019-01-20T15:30:32.713Z,15.70
2019-01-20T15:33:02.983Z,17.97
2019-01-20T15:35:32.133Z,18.67
2019-01-20T15:38:01.229Z,18.47
2019-01-20T15:40:30.314Z,18.20
2019-01-20T15:42:59.305Z,19.40
2019-01-20T15:45:28.521Z,17.77
2019-01-20T15:47:57.629Z,17.90
2019-01-20T15:50:28.608Z,19.60
2019-01-20T15:52:57.775Z,20.77
2019-01-20T15:55:26.944Z,19.53
2019-01-20T15:57:55.971Z,19.97
2019-01-20T16:00:29.957Z,18.37
2019-01-20T16:02:58.958Z,18.90
2019-01-20T16:05:29.177Z,20.07
2019-01-20T16:07:58.401Z,20.50
2019-01-20T16:10:27.592Z,21.50
2019-01-20T16:12:56.859Z,21.90
2019-01-20T16:15:28.482Z,22.27
2019-01-20T16:17:57.829Z,23.40
2019-01-20T16:20:28.424Z,22.10
2019-01-20T16:22:57.927Z,20.03
2019-01-20T16:25:29.624Z,22.10
2019-01-20T16:27:58.798Z,23.30
2019-01-20T16:30:33.281Z,24.10
2019-01-20T16:33:02.269Z,23.60
2019-01-20T16:35:31.263Z,23.40
2019-01-20T16:38:00.682Z,24.37
2019-01-20T16:40:29.759Z,23.53
2019-01-20T16:42:58.844Z,22.80
2019-01-20T16:45:42.094Z,22.53
2019-01-20T16:48:07.700Z,24.00
2019-01-20T16:50:36.878Z,23.13
2019-01-20T16:53:06.127Z,24.20
2019-01-20T16:55:35.646Z,23.67
2019-01-20T16:58:05.282Z,22.33
2019-01-20T17:00:36.514Z,24.40
2019-01-20T17:03:05.666Z,25.47
2019-01-20T17:05:34.882Z,26.37
2019-01-20T17:08:04.007Z,25.97
2019-01-20T17:10:35.025Z,27.30
2019-01-20T17:13:04.338Z,26.80
2019-01-20T17:15:39.846Z,28.03
2019-01-20T17:18:07.678Z,28.83
2019-01-20T17:20:36.745Z,26.13
2019-01-20T17:23:06.587Z,28.97
2019-01-20T17:25:36.187Z,27.57
2019-01-20T17:28:05.406Z,28.07
2019-01-20T17:30:34.689Z,29.80
2019-01-20T17:33:04.258Z,29.87
2019-01-20T17:35:34.449Z,29.73
2019-01-20T17:38:03.631Z,30.67
2019-01-20T17:40:32.656Z,30.60
2019-01-20T17:43:01.743Z,31.87
2019-01-20T17:45:33.150Z,30.23
2019-01-20T17:48:02.285Z,32.00
2019-01-20T17:50:34.980Z,33.37
2019-01-20T17:53:06.719Z,31.80
2019-01-20T17:55:35.964Z,32.77
2019-01-20T17:58:05.447Z,31.00
2019-01-20T18:00:37.738Z,33.13
2019-01-20T18:03:07.011Z,33.33
2019-01-20T18:05:36.484Z,33.37
2019-01-20T18:08:05.644Z,35.43
2019-01-20T18:10:34.742Z,33.77
2019-01-20T18:13:03.840Z,32.80
2019-01-20T18:15:33.068Z,33.13
2019-01-20T18:18:02.131Z,32.13
2019-01-20T18:20:31.279Z,36.17
2019-01-20T18:23:00.537Z,37.20
2019-01-20T18:25:29.614Z,33.73
2019-01-20T18:27:58.686Z,33.50
2019-01-20T18:30:28.682Z,33.97
2019-01-20T18:32:58.166Z,32.87
2019-01-20T18:35:27.817Z,34.30
2019-01-20T18:37:57.830Z,32.70
2019-01-20T18:40:27.939Z,33.20
2019-01-20T18:42:57.157Z,32.33
2019-01-20T18:45:28.408Z,33.13
2019-01-20T18:47:57.570Z,30.03
2019-01-20T18:50:28.522Z,32.70
2019-01-20T18:52:57.727Z,32.33
2019-01-20T18:55:26.889Z,36.90
2019-01-20T18:57:55.954Z,32.93
2019-01-20T19:00:27.444Z,31.70
2019-01-20T19:02:56.875Z,31.53
2019-01-20T19:05:26.308Z,32.50
2019-01-20T19:07:55.808Z,32.40
2019-01-20T19:10:25.448Z,33.97
2019-01-20T19:12:54.575Z,30.47
2019-01-20T19:15:23.962Z,33.97
2019-01-20T19:17:53.023Z,33.50
2019-01-20T19:20:23.086Z,31.17
2019-01-20T19:22:54.142Z,32.77
2019-01-20T19:25:23.213Z,32.80
2019-01-20T19:27:52.466Z,32.87
2019-01-20T19:30:23.754Z,32.63
2019-01-20T19:32:52.852Z,34.73
2019-01-20T19:35:21.983Z,32.87
2019-01-20T19:37:51.126Z,33.67
2019-01-20T19:40:20.179Z,36.10
2019-01-20T19:42:49.666Z,33.70
2019-01-20T19:45:19.200Z,32.07
2019-01-20T19:47:48.429Z,36.20
2019-01-20T19:50:17.691Z,32.40
2019-01-20T19:52:47.199Z,33.37
2019-01-20T19:55:21.440Z,33.13
2019-01-20T19:57:50.583Z,34.00
2019-01-20T20:00:21.579Z,34.30
2019-01-20T20:02:50.758Z,33.60
2019-01-20T20:05:20.093Z,34.97
2019-01-20T20:07:49.995Z,36.50
2019-01-20T20:10:21.191Z,34.40
2019-01-20T20:12:50.486Z,33.20
2019-01-20T20:15:21.350Z,37.70
2019-01-20T20:17:50.536Z,37.17
2019-01-20T20:20:20.662Z,37.53
2019-01-20T20:22:50.021Z,34.67
2019-01-20T20:25:20.060Z,36.20
2019-01-20T20:27:49.480Z,37.50
2019-01-20T20:30:32.986Z,38.10
2019-01-20T20:33:02.037Z,33.57
2019-01-20T20:35:31.263Z,34.10
2019-01-20T20:38:00.541Z,35.40
2019-01-20T20:40:29.805Z,36.80
2019-01-20T20:42:59.051Z,35.20
2019-01-20T20:45:28.478Z,34.47
2019-01-20T20:47:58.093Z,32.13
2019-01-20T20:50:27.204Z,34.60
2019-01-20T20:52:56.379Z,34.30
2019-01-20T20:55:26.571Z,33.67
2019-01-20T20:57:55.650Z,35.90
2019-01-20T21:00:30.555Z,35.33
2019-01-20T21:03:00.706Z,37.20
2019-01-20T21:05:30.887Z,35.80
2019-01-20T21:08:00.234Z,35.87
2019-01-20T21:10:29.243Z,33.47
2019-01-20T21:12:58.318Z,36.70
2019-01-20T21:15:27.524Z,34.27
2019-01-20T21:17:56.619Z,34.87
2019-01-20T21:20:25.612Z,36.77
2019-01-20T21:22:54.586Z,38.00
2019-01-20T21:25:23.758Z,36.07
2019-01-20T21:27:52.873Z,34.00
2019-01-20T21:30:23.776Z,40.53
2019-01-20T21:32:52.872Z,38.00
2019-01-20T21:35:21.954Z,35.37
2019-01-20T21:37:51.104Z,37.23
2019-01-20T21:40:20.331Z,36.40
2019-01-20T21:42:49.417Z,36.20
2019-01-20T21:45:18.894Z,36.60
2019-01-20T21:47:47.982Z,37.33
2019-01-20T21:50:22.142Z,38.37
2019-01-20T21:52:51.331Z,35.93
2019-01-20T21:55:20.512Z,34.40
2019-01-20T21:57:49.623Z,33.60
2019-01-20T22:00:20.880Z,32.40
2019-01-20T22:02:50.485Z,36.27
2019-01-20T22:05:19.561Z,36.80
2019-01-20T22:07:48.659Z,35.13
2019-01-20T22:10:19.463Z,36.33
2019-01-20T22:12:48.623Z,37.03
2019-01-20T22:15:18.330Z,36.17
2019-01-20T22:17:48.084Z,35.97
2019-01-20T22:20:21.439Z,34.00
2019-01-20T22:22:51.228Z,34.90
2019-01-20T22:25:20.232Z,34.50
2019-01-20T22:27:49.303Z,36.37
2019-01-20T22:30:26.290Z,32.47
2019-01-20T22:32:55.512Z,33.27
2019-01-20T22:35:24.598Z,33.53
2019-01-20T22:37:53.712Z,33.60
2019-01-20T22:40:22.797Z,33.90
2019-01-20T22:42:51.878Z,34.60
2019-01-20T22:45:23.289Z,34.17
2019-01-20T22:47:52.650Z,33.13
2019-01-20T22:50:21.867Z,34.53
2019-01-20T22:52:51.090Z,32.23
2019-01-20T22:55:20.181Z,32.00
2019-01-20T22:57:49.355Z,33.20
2019-01-20T23:00:41.736Z,31.20
2019-01-20T23:03:11.069Z,33.20
2019-01-20T23:05:40.171Z,33.67
2019-01-20T23:08:09.269Z,33.60
2019-01-20T23:10:38.459Z,32.23
2019-01-20T23:13:07.737Z,30.50
2019-01-20T23:15:36.955Z,32.80
2019-01-20T23:18:06.434Z,32.30
2019-01-20T23:20:35.530Z,37.53
2019-01-20T23:23:04.933Z,33.53
2019-01-20T23:25:34.087Z,34.40
2019-01-20T23:28:03.078Z,33.50
